createdAt,value
2018-12-07T00:01:52.809Z,95780.30
2018-12-07T00:04:28.513Z,95777.79
2018-12-07T00:07:04.392Z,95770.80
2018-12-07T00:09:40.177Z,95770.81
2018-12-07T00:12:15.891Z,95757.70
2018-12-07T00:14:51.657Z,95753.55
2018-12-07T00:17:27.848Z,95757.09
2018-12-07T00:20:04.064Z,95746.09
2018-12-07T00:22:39.933Z,95746.77
2018-12-07T00:25:15.759Z,95750.67
2018-12-07T00:27:51.597Z,95740.25
2018-12-07T00:30:27.372Z,95744.30
2018-12-07T00:33:03.098Z,95742.16
2018-12-07T00:35:38.936Z,95734.27
2018-12-07T00:38:14.704Z,95730.38
2018-12-07T00:40:50.694Z,95727.59
2018-12-07T00:43:26.878Z,95722.38
2018-12-07T00:46:02.811Z,95723.02
2018-12-07T00:48:38.620Z,95724.78
2018-12-07T00:51:14.435Z,95724.61
2018-12-07T00:53:50.189Z,95724.81
2018-12-07T00:56:26.021Z,95722.97
2018-12-07T00:59:01.739Z,95715.31
2018-12-07T01:01:37.751Z,95719.50
2018-12-07T01:04:13.803Z,95715.95
2018-12-07T01:06:50.396Z,95703.24
2018-12-07T01:09:26.089Z,95704.36
2018-12-07T01:12:01.876Z,95697.30
2018-12-07T01:14:37.590Z,95705.31
2018-12-07T01:17:13.449Z,95704.37
2018-12-07T01:19:50.201Z,95702.42
2018-12-07T01:22:25.861Z,95703.42
2018-12-07T01:25:01.828Z,95703.83
2018-12-07T01:27:37.721Z,95705.88
2018-12-07T01:30:13.788Z,95701.07
2018-12-07T01:32:49.897Z,95708.70
2018-12-07T01:35:25.687Z,95708.82
2018-12-07T01:38:01.395Z,95707.91
2018-12-07T01:40:37.287Z,95706.18
2018-12-07T01:43:13.102Z,95712.63
2018-12-07T01:45:48.994Z,95703.73
2018-12-07T01:48:24.707Z,95692.34
2018-12-07T01:51:00.594Z,95695.31
2018-12-07T01:53:36.469Z,95701.09
2018-12-07T01:56:12.228Z,95690.93
2018-12-07T01:58:48.025Z,95696.23
2018-12-07T02:01:23.671Z,95701.74
2018-12-07T02:03:59.488Z,95698.08
2018-12-07T02:06:35.259Z,95700.70
2018-12-07T02:09:11.048Z,95692.72
2018-12-07T02:11:47.187Z,95690.56
2018-12-07T02:14:23.125Z,95692.90
2018-12-07T02:16:58.967Z,95690.93
2018-12-07T02:19:34.706Z,95679.97
2018-12-07T02:22:10.713Z,95676.03
2018-12-07T02:24:46.451Z,95682.15
2018-12-07T02:27:22.285Z,95683.57
2018-12-07T02:29:57.984Z,95682.23
2018-12-07T02:32:33.732Z,95680.84
2018-12-07T02:35:09.517Z,95670.47
2018-12-07T02:37:45.238Z,95666.45
2018-12-07T02:40:21.042Z,95669.84
2018-12-07T02:42:58.326Z,95665.86
2018-12-07T02:45:34.049Z,95661.88
2018-12-07T02:48:09.770Z,95656.22
2018-12-07T02:50:45.658Z,95655.51
2018-12-07T02:53:21.418Z,95645.53
2018-12-07T02:55:57.235Z,95638.50
2018-12-07T02:58:33.248Z,95634.41
2018-12-07T03:01:09.080Z,95626.95
2018-12-07T03:03:44.759Z,95627.18
2018-12-07T03:06:20.549Z,95623.98
2018-12-07T03:08:56.261Z,95625.44
2018-12-07T03:11:33.031Z,95620.22
2018-12-07T03:14:08.844Z,95617.42
2018-12-07T03:16:44.691Z,95622.49
2018-12-07T03:19:20.603Z,95621.92
2018-12-07T03:21:56.440Z,95612.48
2018-12-07T03:24:32.355Z,95612.48
2018-12-07T03:27:08.152Z,95607.94
2018-12-07T03:29:43.853Z,95607.27
2018-12-07T03:32:19.773Z,95603.47
2018-12-07T03:34:55.607Z,95606.62
2018-12-07T03:37:31.485Z,95603.57
2018-12-07T03:40:07.854Z,95605.33
2018-12-07T03:42:43.696Z,95601.94
2018-12-07T03:45:19.470Z,95603.76
2018-12-07T03:47:55.187Z,95605.36
2018-12-07T03:50:30.990Z,95602.67
2018-12-07T03:53:06.943Z,95595.50
2018-12-07T03:55:43.001Z,95586.56
2018-12-07T03:58:18.876Z,95583.08
2018-12-07T04:00:54.669Z,95581.17
2018-12-07T04:03:30.376Z,95583.62
2018-12-07T04:06:06.720Z,95592.30
2018-12-07T04:08:42.565Z,95585.34
2018-12-07T04:11:18.293Z,95579.09
2018-12-07T04:13:54.033Z,95586.46
2018-12-07T04:16:29.753Z,95578.23
2018-12-07T04:19:05.697Z,95586.77
2018-12-07T04:21:41.352Z,95585.34
2018-12-07T04:24:17.206Z,95582.63
2018-12-07T04:26:53.715Z,95580.05
2018-12-07T04:29:30.388Z,95576.55
2018-12-07T04:32:06.337Z,95577.89
2018-12-07T04:34:43.095Z,95576.77
2018-12-07T04:40:00.540Z,95569.23
2018-12-07T04:42:36.321Z,95565.32
2018-12-07T04:45:12.189Z,95572.28
2018-12-07T04:47:48.327Z,95568.92
2018-12-07T04:50:24.297Z,95569.98
2018-12-07T04:53:00.952Z,95565.32
2018-12-07T04:55:36.774Z,95566.03
2018-12-07T04:58:12.678Z,95565.32
2018-12-07T05:00:48.354Z,95560.23
2018-12-07T05:03:24.088Z,95559.27
2018-12-07T05:05:59.805Z,95561.64
2018-12-07T05:08:35.642Z,95550.99
2018-12-07T05:11:11.397Z,95549.03
2018-12-07T05:13:47.150Z,95555.41
2018-12-07T05:16:23.069Z,95551.33
2018-12-07T05:18:59.018Z,95550.33
2018-12-07T05:21:34.746Z,95545.57
2018-12-07T05:24:10.690Z,95550.14
2018-12-07T05:26:46.428Z,95555.23
2018-12-07T05:29:22.967Z,95555.34
2018-12-07T05:31:58.875Z,95552.08
2018-12-07T05:34:34.647Z,95552.93
2018-12-07T05:37:10.322Z,95546.30
2018-12-07T05:39:46.297Z,95540.55
2018-12-07T05:42:22.063Z,95539.98
2018-12-07T05:44:57.860Z,95540.09
2018-12-07T05:47:33.516Z,95537.23
2018-12-07T05:50:09.521Z,95529.97
2018-12-07T05:52:45.429Z,95534.66
2018-12-07T05:55:21.258Z,95538.45
2018-12-07T05:57:57.173Z,95536.48
2018-12-07T06:00:32.962Z,95528.08
2018-12-07T06:03:08.720Z,95536.28
2018-12-07T06:05:44.374Z,95529.69
2018-12-07T06:08:20.176Z,95530.69
2018-12-07T06:10:56.526Z,95528.98
2018-12-07T06:13:33.990Z,95519.95
2018-12-07T06:16:09.951Z,95516.68
2018-12-07T06:18:45.636Z,95521.03
2018-12-07T06:21:21.412Z,95512.11
2018-12-07T06:23:57.323Z,95516.38
2018-12-07T06:26:33.410Z,95513.68
2018-12-07T06:29:09.250Z,95510.95
2018-12-07T06:31:45.246Z,95503.89
2018-12-07T06:34:21.070Z,95506.00
2018-12-07T06:36:56.864Z,95492.03
2018-12-07T06:39:32.628Z,95492.11
2018-12-07T06:42:08.549Z,95493.41
2018-12-07T06:44:44.400Z,95493.68
2018-12-07T06:47:20.150Z,95487.30
2018-12-07T06:49:55.865Z,95490.22
2018-12-07T06:52:31.702Z,95478.25
2018-12-07T06:55:07.801Z,95480.94
2018-12-07T06:57:43.695Z,95481.34
2018-12-07T07:00:19.596Z,95485.28
2018-12-07T07:02:55.458Z,95483.72
2018-12-07T07:05:31.223Z,95482.34
2018-12-07T07:08:07.868Z,95480.30
2018-12-07T07:10:43.776Z,95471.93
2018-12-07T07:13:19.795Z,95475.84
2018-12-07T07:15:55.749Z,95477.47
2018-12-07T07:18:31.461Z,95472.27
2018-12-07T07:21:07.376Z,95478.28
2018-12-07T07:23:43.178Z,95476.31
2018-12-07T07:26:19.133Z,95477.62
2018-12-07T07:28:55.120Z,95476.84
2018-12-07T07:31:31.217Z,95466.39
2018-12-07T07:34:07.172Z,95455.80
2018-12-07T07:36:43.008Z,95447.96
2018-12-07T07:39:18.862Z,95456.03
2018-12-07T07:41:54.680Z,95455.80
2018-12-07T07:44:30.563Z,95455.03
2018-12-07T07:47:06.481Z,95454.98
2018-12-07T07:49:42.283Z,95452.61
2018-12-07T07:52:18.095Z,95451.79
2018-12-07T07:54:54.092Z,95448.47
2018-12-07T07:57:29.933Z,95448.09
2018-12-07T08:00:06.884Z,95447.87
2018-12-07T08:02:42.716Z,95443.78
2018-12-07T08:05:18.469Z,95432.61
2018-12-07T08:07:55.626Z,95437.33
2018-12-07T08:10:31.647Z,95438.83
2018-12-07T08:13:07.514Z,95435.80
2018-12-07T08:15:43.341Z,95429.11
2018-12-07T08:18:19.150Z,95422.33
2018-12-07T08:20:55.192Z,95426.44
2018-12-07T08:23:31.041Z,95423.50
2018-12-07T08:26:06.946Z,95416.73
2018-12-07T08:28:42.731Z,95409.30
2018-12-07T08:31:18.579Z,95415.28
2018-12-07T08:33:54.784Z,95415.98
2018-12-07T08:36:30.525Z,95416.16
2018-12-07T08:39:11.019Z,95424.89
2018-12-07T08:41:46.939Z,95424.37
2018-12-07T08:44:22.633Z,95425.12
2018-12-07T08:46:58.462Z,95414.64
2018-12-07T08:49:39.401Z,95410.75
2018-12-07T08:52:15.354Z,95405.66
2018-12-07T08:54:51.296Z,95400.10
2018-12-07T08:57:27.072Z,95390.14
2018-12-07T09:00:02.846Z,95381.83
2018-12-07T09:02:39.619Z,95377.97
2018-12-07T09:05:16.062Z,95381.02
2018-12-07T09:07:51.807Z,95370.06
2018-12-07T09:10:27.901Z,95358.60
2018-12-07T09:13:03.582Z,95362.11
2018-12-07T09:15:40.735Z,95368.76
2018-12-07T09:18:16.463Z,95361.81
2018-12-07T09:20:54.124Z,95349.19
2018-12-07T09:23:30.052Z,95356.88
2018-12-07T09:26:05.827Z,95337.48
2018-12-07T09:28:42.541Z,95339.41
2018-12-07T09:31:18.353Z,95338.88
2018-12-07T09:33:54.237Z,95330.98
2018-12-07T09:36:30.001Z,95316.80
2018-12-07T09:39:09.973Z,95323.50
2018-12-07T09:41:45.777Z,95315.40
2018-12-07T09:44:21.450Z,95312.50
2018-12-07T09:46:57.442Z,95310.55
2018-12-07T09:49:33.397Z,95302.86
2018-12-07T09:52:09.250Z,95296.89
2018-12-07T09:54:45.168Z,95280.33
2018-12-07T09:57:20.826Z,95268.48
2018-12-07T09:59:56.785Z,95268.25
2018-12-07T10:02:32.764Z,95255.10
2018-12-07T10:05:08.809Z,95247.66
2018-12-07T10:07:45.344Z,95248.58
2018-12-07T10:10:21.175Z,95251.86
2018-12-07T10:12:56.821Z,95250.33
2018-12-07T10:15:32.744Z,95249.05
2018-12-07T10:18:08.728Z,95249.83
2018-12-07T10:20:44.692Z,95236.83
2018-12-07T10:23:20.486Z,95230.89
2018-12-07T10:25:56.457Z,95230.37
2018-12-07T10:28:32.354Z,95222.38
2018-12-07T10:31:08.241Z,95226.28
2018-12-07T10:33:44.177Z,95226.20
2018-12-07T10:36:19.990Z,95220.75
2018-12-07T10:38:55.777Z,95210.37
2018-12-07T10:41:31.859Z,95210.76
2018-12-07T10:44:07.708Z,95213.44
2018-12-07T10:46:43.856Z,95209.50
2018-12-07T10:49:19.739Z,95199.23
2018-12-07T10:51:55.757Z,95198.06
2018-12-07T10:54:31.809Z,95207.59
2018-12-07T10:57:07.572Z,95214.71
2018-12-07T10:59:43.608Z,95213.38
2018-12-07T11:02:24.602Z,95209.83
2018-12-07T11:05:05.697Z,95210.55
2018-12-07T11:07:46.692Z,95188.21
2018-12-07T11:10:27.653Z,95193.21
2018-12-07T11:13:09.437Z,95196.61
2018-12-07T11:15:50.512Z,95187.17
2018-12-07T11:18:31.414Z,95182.83
2018-12-07T11:21:14.816Z,95177.28
2018-12-07T11:24:00.568Z,95158.34
2018-12-07T11:26:41.736Z,95158.75
2018-12-07T11:29:22.806Z,95149.66
2018-12-07T11:32:03.690Z,95141.59
2018-12-07T11:37:27.135Z,95134.08
2018-12-07T11:40:03.947Z,95139.50
2018-12-07T11:42:39.813Z,95134.98
2018-12-07T11:45:15.629Z,95144.13
2018-12-07T11:47:51.988Z,95137.52
2018-12-07T11:50:28.018Z,95132.88
2018-12-07T11:53:04.099Z,95128.47
2018-12-07T11:55:41.077Z,95119.62
2018-12-07T11:58:18.740Z,95110.72
2018-12-07T12:00:57.026Z,95113.60
2018-12-07T12:03:32.869Z,95096.63
2018-12-07T12:06:08.888Z,95089.58
2018-12-07T12:08:44.895Z,95083.00
2018-12-07T12:11:20.730Z,95074.41
2018-12-07T12:13:58.268Z,95069.34
2018-12-07T12:16:34.267Z,95066.16
2018-12-07T12:19:10.830Z,95055.13
2018-12-07T12:21:46.866Z,95050.42
2018-12-07T12:24:22.926Z,95054.21
2018-12-07T12:26:58.882Z,95046.53
2018-12-07T12:29:34.629Z,95055.55
2018-12-07T12:32:10.612Z,95048.97
2018-12-07T12:34:46.722Z,95039.53
2018-12-07T12:37:22.678Z,95031.97
2018-12-07T12:39:58.465Z,95032.03
2018-12-07T12:42:34.186Z,95028.51
2018-12-07T12:45:10.316Z,95017.41
2018-12-07T12:47:46.137Z,95007.61
2018-12-07T12:50:27.172Z,94998.22
2018-12-07T12:53:03.165Z,94989.62
2018-12-07T12:55:39.065Z,94970.83
2018-12-07T12:58:14.940Z,94969.13
2018-12-07T13:00:50.711Z,94957.18
2018-12-07T13:03:26.814Z,94953.63
2018-12-07T13:06:02.566Z,94945.97
2018-12-07T13:08:38.372Z,94946.97
2018-12-07T13:11:14.292Z,94953.98
2018-12-07T13:13:50.989Z,94951.02
2018-12-07T13:16:26.662Z,94938.61
2018-12-07T13:19:05.057Z,94934.95
2018-12-07T13:21:40.989Z,94946.84
2018-12-07T13:24:16.835Z,94932.95
2018-12-07T13:26:52.856Z,94912.20
2018-12-07T13:29:28.608Z,94901.52
2018-12-07T13:32:04.512Z,94893.86
2018-12-07T13:34:40.305Z,94872.06
2018-12-07T13:37:17.177Z,94850.84
2018-12-07T13:39:54.079Z,94843.28
2018-12-07T13:42:29.949Z,94847.01
2018-12-07T13:45:07.455Z,94848.63
2018-12-07T13:47:43.847Z,94845.20
2018-12-07T13:50:24.981Z,94829.00
2018-12-07T13:53:02.605Z,94819.59
2018-12-07T13:55:38.988Z,94808.16
2018-12-07T13:58:14.921Z,94807.94
2018-12-07T14:00:54.939Z,94811.50
2018-12-07T14:03:30.872Z,94809.03
2018-12-07T14:06:06.875Z,94807.22
2018-12-07T14:08:42.848Z,94813.61
2018-12-07T14:11:19.307Z,94824.38
2018-12-07T14:13:55.161Z,94818.48
2018-12-07T14:19:11.526Z,94803.87
2018-12-07T14:21:47.309Z,94780.42
2018-12-07T14:24:23.407Z,94761.20
2018-12-07T14:26:59.704Z,94760.62
2018-12-07T14:29:35.995Z,94747.72
2018-12-07T14:32:11.890Z,94741.20
2018-12-07T14:34:47.808Z,94758.48
2018-12-07T14:37:23.911Z,94763.00
2018-12-07T14:39:59.869Z,94750.72
2018-12-07T14:42:35.977Z,94734.89
2018-12-07T14:45:13.472Z,94716.05
2018-12-07T14:47:49.355Z,94710.83
2018-12-07T14:50:25.136Z,94733.73
2018-12-07T14:53:01.102Z,94748.45
2018-12-07T14:55:37.142Z,94743.27
2018-12-07T14:58:13.421Z,94728.95
2018-12-07T15:00:49.582Z,94731.43
2018-12-07T15:03:25.569Z,94723.05
2018-12-07T15:06:01.407Z,94713.27
2018-12-07T15:08:37.302Z,94686.31
2018-12-07T15:11:13.253Z,94683.66
2018-12-07T15:13:49.574Z,94688.83
2018-12-07T15:16:26.046Z,94679.38
2018-12-07T15:19:01.907Z,94688.83
2018-12-07T15:21:38.002Z,94676.55
2018-12-07T15:24:14.335Z,94660.13
2018-12-07T15:26:50.603Z,94654.11
2018-12-07T15:29:26.562Z,94652.69
2018-12-07T15:32:02.589Z,94661.50
2018-12-07T15:34:38.651Z,94646.88
2018-12-07T15:37:14.638Z,94657.84
2018-12-07T15:39:50.471Z,94682.30
2018-12-07T15:42:26.339Z,94704.77
2018-12-07T15:45:02.550Z,94681.95
2018-12-07T15:47:39.358Z,94678.67
2018-12-07T15:50:15.319Z,94680.06
2018-12-07T15:52:51.180Z,94690.86
2018-12-07T15:55:27.090Z,94693.86
2018-12-07T15:58:03.300Z,94673.14
2018-12-07T16:00:39.435Z,94667.83
2018-12-07T16:03:15.236Z,94685.84
2018-12-07T16:05:51.106Z,94691.05
2018-12-07T16:08:27.242Z,94693.13
2018-12-07T16:11:04.287Z,94700.04
2018-12-07T16:13:40.269Z,94680.80
2018-12-07T16:16:16.323Z,94671.64
2018-12-07T16:18:52.349Z,94660.72
2018-12-07T16:21:28.479Z,94647.34
2018-12-07T16:24:04.593Z,94665.14
2018-12-07T16:26:40.454Z,94652.33
2018-12-07T16:29:16.680Z,94658.52
2018-12-07T16:31:52.661Z,94647.23
2018-12-07T16:34:28.632Z,94632.12
2018-12-07T16:37:04.573Z,94641.01
2018-12-07T16:39:40.652Z,94643.50
2018-12-07T16:42:17.281Z,94651.09
2018-12-07T16:44:53.584Z,94655.13
2018-12-07T16:47:29.593Z,94655.70
2018-12-07T16:50:07.967Z,94638.02
2018-12-07T16:52:44.047Z,94639.73
2018-12-07T16:55:20.922Z,94625.48
2018-12-07T16:57:57.258Z,94643.39
2018-12-07T17:00:33.751Z,94641.22
2018-12-07T17:03:09.739Z,94643.67
2018-12-07T17:05:46.070Z,94638.92
2018-12-07T17:08:22.080Z,94624.91
2018-12-07T17:10:58.290Z,94646.12
2018-12-07T17:13:34.164Z,94641.72
2018-12-07T17:17:07.776Z,94673.43
2018-12-07T17:19:44.084Z,94672.64
2018-12-07T17:22:20.140Z,94658.14
2018-12-07T17:24:56.092Z,94648.62
2018-12-07T17:27:32.285Z,94644.61
2018-12-07T17:30:09.413Z,94640.63
2018-12-07T17:32:45.465Z,94635.71
2018-12-07T17:35:21.510Z,94601.79
2018-12-07T17:37:58.230Z,94608.52
2018-12-07T17:40:34.065Z,94597.09
2018-12-07T17:43:09.952Z,94612.16
2018-12-07T17:45:45.884Z,94614.10
2018-12-07T17:48:21.745Z,94608.00
2018-12-07T17:50:57.936Z,94612.64
2018-12-07T17:53:33.757Z,94606.34
2018-12-07T17:56:09.781Z,94605.80
2018-12-07T17:58:45.748Z,94619.51
2018-12-07T18:01:21.508Z,94615.17
2018-12-07T18:03:58.145Z,94619.61
2018-12-07T18:06:33.873Z,94622.81
2018-12-07T18:09:10.993Z,94621.52
2018-12-07T18:11:46.919Z,94627.42
2018-12-07T18:14:22.638Z,94619.50
2018-12-07T18:16:58.467Z,94633.55
2018-12-07T18:19:34.389Z,94635.00
2018-12-07T18:22:10.370Z,94637.11
2018-12-07T18:24:46.250Z,94640.73
2018-12-07T18:27:22.169Z,94636.45
2018-12-07T18:29:58.381Z,94632.39
2018-12-07T18:32:34.251Z,94645.67
2018-12-07T18:35:10.322Z,94633.13
2018-12-07T18:37:46.403Z,94643.55
2018-12-07T18:40:22.371Z,94643.45
2018-12-07T18:42:58.369Z,94630.98
2018-12-07T18:45:34.599Z,94628.31
2018-12-07T18:48:10.861Z,94629.65
2018-12-07T18:50:47.236Z,94613.27
2018-12-07T18:53:22.968Z,94625.03
2018-12-07T18:55:58.949Z,94621.39
2018-12-07T18:58:35.142Z,94612.64
2018-12-07T19:01:11.111Z,94626.06
2018-12-07T19:03:46.975Z,94629.84
2018-12-07T19:06:23.075Z,94632.08
2018-12-07T19:08:58.819Z,94631.26
2018-12-07T19:11:34.953Z,94620.45
2018-12-07T19:14:11.090Z,94621.05
2018-12-07T19:16:46.826Z,94644.25
2018-12-07T19:19:22.946Z,94640.45
2018-12-07T19:21:58.725Z,94637.67
2018-12-07T19:24:34.733Z,94639.54
2018-12-07T19:27:10.996Z,94641.55
2018-12-07T19:29:46.948Z,94648.10
2018-12-07T19:32:23.349Z,94659.51
2018-12-07T19:34:59.225Z,94650.63
2018-12-07T19:37:35.149Z,94660.24
2018-12-07T19:40:11.251Z,94668.21
2018-12-07T19:42:47.169Z,94677.47
2018-12-07T19:45:24.698Z,94680.45
2018-12-07T19:48:00.541Z,94696.75
2018-12-07T19:50:36.590Z,94720.45
2018-12-07T19:53:12.390Z,94719.77
2018-12-07T19:55:48.183Z,94748.30
2018-12-07T19:58:24.079Z,94773.85
2018-12-07T20:01:00.327Z,94791.16
2018-12-07T20:03:36.188Z,94782.27
2018-12-07T20:06:12.048Z,94790.86
2018-12-07T20:08:47.838Z,94790.55
2018-12-07T20:11:23.667Z,94777.95
2018-12-07T20:13:59.384Z,94784.98
2018-12-07T20:16:35.419Z,94783.59
2018-12-07T20:19:11.356Z,94783.98
2018-12-07T20:21:47.223Z,94788.77
2018-12-07T20:24:23.430Z,94796.03
2018-12-07T20:26:59.477Z,94805.13
2018-12-07T20:29:35.786Z,94802.88
2018-12-07T20:32:11.636Z,94802.01
2018-12-07T20:34:47.319Z,94799.73
2018-12-07T20:37:23.230Z,94805.87
2018-12-07T20:43:06.599Z,94809.02
2018-12-07T20:45:42.377Z,94817.64
2018-12-07T20:48:19.044Z,94813.54
2018-12-07T20:50:55.038Z,94811.03
2018-12-07T20:53:32.485Z,94822.91
2018-12-07T20:56:08.384Z,94835.55
2018-12-07T20:58:45.488Z,94834.88
2018-12-07T21:01:22.376Z,94834.79
2018-12-07T21:04:41.671Z,94865.39
2018-12-07T21:07:40.419Z,94895.43
2018-12-07T21:15:44.344Z,94924.30
2018-12-07T21:18:20.174Z,94920.87
2018-12-07T21:20:56.348Z,94939.98
2018-12-07T21:23:32.414Z,94961.32
2018-12-07T21:26:08.257Z,94967.63
2018-12-07T21:28:44.207Z,95003.11
2018-12-07T21:31:19.991Z,95003.31
2018-12-07T21:34:10.368Z,95010.31
2018-12-07T21:36:46.997Z,95036.02
2018-12-07T21:39:39.622Z,95043.17
2018-12-07T21:42:15.588Z,95062.95
2018-12-07T21:44:51.521Z,95064.95
2018-12-07T21:48:49.646Z,95069.70
2018-12-07T21:52:44.399Z,95069.74
2018-12-07T21:55:21.227Z,95075.25
2018-12-07T21:57:57.304Z,95080.28
2018-12-07T22:00:33.283Z,95071.72
2018-12-07T22:03:09.830Z,95065.86
2018-12-07T22:05:45.440Z,95069.91
2018-12-07T22:08:21.801Z,95079.60
2018-12-07T22:10:57.967Z,95067.80
2018-12-07T22:13:34.225Z,95100.08
2018-12-07T22:16:10.990Z,95101.38
2018-12-07T22:18:46.670Z,95097.02
2018-12-07T22:21:23.482Z,95090.69
2018-12-07T22:23:59.373Z,95091.20
2018-12-07T22:26:35.015Z,95118.52
2018-12-07T22:29:10.693Z,95115.77
2018-12-07T22:31:46.570Z,95127.88
2018-12-07T22:34:22.422Z,95115.28
2018-12-07T22:36:58.122Z,95131.45
2018-12-07T22:39:34.020Z,95130.29
2018-12-07T22:42:09.855Z,95135.63
2018-12-07T22:44:46.648Z,95140.80
2018-12-07T22:47:22.235Z,95154.03
2018-12-07T22:49:57.804Z,95152.09
2018-12-07T22:52:33.441Z,95154.52
2018-12-07T22:55:09.523Z,95151.59
2018-12-07T22:57:45.077Z,95160.67
2018-12-07T23:00:22.368Z,95162.75
2018-12-07T23:02:58.058Z,95173.60
2018-12-07T23:05:33.705Z,95174.89
2018-12-07T23:08:09.332Z,95182.20
2018-12-07T23:13:26.579Z,95194.31
2018-12-07T23:16:02.409Z,95198.03
2018-12-07T23:18:38.114Z,95188.95
2018-12-07T23:21:13.952Z,95186.22
2018-12-07T23:23:49.540Z,95194.63
2018-12-07T23:26:25.145Z,95189.63
2018-12-07T23:29:00.845Z,95188.16
2018-12-07T23:31:36.613Z,95196.25
2018-12-07T23:34:12.546Z,95197.04
2018-12-07T23:36:48.310Z,95192.18
2018-12-07T23:39:23.951Z,95200.11
2018-12-07T23:41:59.537Z,95209.02
2018-12-07T23:44:35.261Z,95200.89
2018-12-07T23:47:10.815Z,95221.78
2018-12-07T23:52:30.748Z,95218.38
2018-12-07T23:55:06.873Z,95209.83
2018-12-07T23:57:42.715Z,95199.63
